sensor_id;sensor_type;location;lat;lon;timestamp;temperature;humidity
7588;DHT22;3835;48.850;8.938;2023-07-20T00:01:48;18.00;93.10
7588;DHT22;3835;48.850;8.938;2023-07-20T00:04:14;18.10;93.00
7588;DHT22;3835;48.850;8.938;2023-07-20T00:06:41;18.00;93.20
7588;DHT22;3835;48.850;8.938;2023-07-20T00:09:09;17.90;93.20
7588;DHT22;3835;48.850;8.938;2023-07-20T00:11:37;17.90;93.40
7588;DHT22;3835;48.850;8.938;2023-07-20T00:14:04;17.80;93.30
7588;DHT22;3835;48.850;8.938;2023-07-20T00:16:31;17.90;93.60
7588;DHT22;3835;48.850;8.938;2023-07-20T00:18:58;17.80;93.70
7588;DHT22;3835;48.850;8.938;2023-07-20T00:21:25;17.70;93.90
7588;DHT22;3835;48.850;8.938;2023-07-20T00:23:52;17.70;94.00
7588;DHT22;3835;48.850;8.938;2023-07-20T00:26:20;17.60;94.20
7588;DHT22;3835;48.850;8.938;2023-07-20T00:28:48;17.60;94.40
7588;DHT22;3835;48.850;8.938;2023-07-20T00:31:15;17.60;94.50
7588;DHT22;3835;48.850;8.938;2023-07-20T00:33:42;17.50;94.60
7588;DHT22;3835;48.850;8.938;2023-07-20T00:36:08;17.40;94.80
7588;DHT22;3835;48.850;8.938;2023-07-20T00:38:35;17.30;95.00
7588;DHT22;3835;48.850;8.938;2023-07-20T00:41:02;17.30;95.30
7588;DHT22;3835;48.850;8.938;2023-07-20T00:43:29;17.20;95.40
7588;DHT22;3835;48.850;8.938;2023-07-20T00:45:56;17.10;95.70
7588;DHT22;3835;48.850;8.938;2023-07-20T00:48:23;17.10;95.70
7588;DHT22;3835;48.850;8.938;2023-07-20T00:50:50;17.00;96.00
7588;DHT22;3835;48.850;8.938;2023-07-20T00:53:17;17.00;96.20
7588;DHT22;3835;48.850;8.938;2023-07-20T00:55:44;17.00;96.20
7588;DHT22;3835;48.850;8.938;2023-07-20T00:58:11;16.90;96.50
7588;DHT22;3835;48.850;8.938;2023-07-20T01:00:39;16.90;96.70
7588;DHT22;3835;48.850;8.938;2023-07-20T01:03:06;16.80;97.10
7588;DHT22;3835;48.850;8.938;2023-07-20T01:05:38;16.80;97.00
7588;DHT22;3835;48.850;8.938;2023-07-20T01:08:11;16.70;97.30
7588;DHT22;3835;48.850;8.938;2023-07-20T01:10:41;16.60;97.70
7588;DHT22;3835;48.850;8.938;2023-07-20T01:13:10;16.60;97.80
7588;DHT22;3835;48.850;8.938;2023-07-20T01:15:39;16.60;98.30
7588;DHT22;3835;48.850;8.938;2023-07-20T01:18:06;16.50;98.30
7588;DHT22;3835;48.850;8.938;2023-07-20T01:20:33;16.50;98.70
7588;DHT22;3835;48.850;8.938;2023-07-20T01:23:22;16.40;98.80
7588;DHT22;3835;48.850;8.938;2023-07-20T01:26:10;16.40;99.20
7588;DHT22;3835;48.850;8.938;2023-07-20T01:28:54;16.40;99.20
7588;DHT22;3835;48.850;8.938;2023-07-20T01:31:28;16.40;99.60
7588;DHT22;3835;48.850;8.938;2023-07-20T01:33:58;16.30;99.80
7588;DHT22;3835;48.850;8.938;2023-07-20T01:36:28;16.20;99.90
7588;DHT22;3835;48.850;8.938;2023-07-20T01:38:56;16.10;99.90
7588;DHT22;3835;48.850;8.938;2023-07-20T01:41:23;16.10;99.90
7588;DHT22;3835;48.850;8.938;2023-07-20T01:43:50;16.10;99.90
7588;DHT22;3835;48.850;8.938;2023-07-20T01:46:16;16.00;99.90
7588;DHT22;3835;48.850;8.938;2023-07-20T01:48:45;16.00;99.90
7588;DHT22;3835;48.850;8.938;2023-07-20T01:51:12;16.00;99.90
7588;DHT22;3835;48.850;8.938;2023-07-20T01:53:39;16.00;99.90
7588;DHT22;3835;48.850;8.938;2023-07-20T01:56:06;15.90;99.90
7588;DHT22;3835;48.850;8.938;2023-07-20T01:58:32;15.90;99.90
7588;DHT22;3835;48.850;8.938;2023-07-20T02:01:00;15.90;99.90
7588;DHT22;3835;48.850;8.938;2023-07-20T02:03:28;15.80;99.90
7588;DHT22;3835;48.850;8.938;2023-07-20T02:05:56;15.80;99.90
7588;DHT22;3835;48.850;8.938;2023-07-20T02:08:23;15.80;99.90
7588;DHT22;3835;48.850;8.938;2023-07-20T02:10:51;15.80;99.90
7588;DHT22;3835;48.850;8.938;2023-07-20T02:13:18;15.80;99.90
7588;DHT22;3835;48.850;8.938;2023-07-20T02:15:45;15.70;99.90
7588;DHT22;3835;48.850;8.938;2023-07-20T02:18:12;15.70;99.90
7588;DHT22;3835;48.850;8.938;2023-07-20T02:20:40;15.70;99.90
7588;DHT22;3835;48.850;8.938;2023-07-20T02:23:09;15.60;99.90
7588;DHT22;3835;48.850;8.938;2023-07-20T02:25:36;15.60;99.90
7588;DHT22;3835;48.850;8.938;2023-07-20T02:28:04;15.60;99.90
7588;DHT22;3835;48.850;8.938;2023-07-20T02:30:31;15.60;99.90
7588;DHT22;3835;48.850;8.938;2023-07-20T02:32:57;15.50;99.90
7588;DHT22;3835;48.850;8.938;2023-07-20T02:35:24;15.50;99.90
7588;DHT22;3835;48.850;8.938;2023-07-20T02:37:51;15.50;99.90
7588;DHT22;3835;48.850;8.938;2023-07-20T02:40:20;15.40;99.90
7588;DHT22;3835;48.850;8.938;2023-07-20T02:42:47;15.40;99.90
7588;DHT22;3835;48.850;8.938;2023-07-20T02:45:14;15.40;99.90
7588;DHT22;3835;48.850;8.938;2023-07-20T02:47:41;15.30;99.90
7588;DHT22;3835;48.850;8.938;2023-07-20T02:50:08;15.30;99.90
7588;DHT22;3835;48.850;8.938;2023-07-20T02:52:35;15.20;99.90
7588;DHT22;3835;48.850;8.938;2023-07-20T02:55:02;15.10;99.90
7588;DHT22;3835;48.850;8.938;2023-07-20T02:57:30;15.10;99.90
7588;DHT22;3835;48.850;8.938;2023-07-20T02:59:56;15.00;99.90
7588;DHT22;3835;48.850;8.938;2023-07-20T03:02:23;15.00;99.90
7588;DHT22;3835;48.850;8.938;2023-07-20T03:04:50;15.00;99.90
7588;DHT22;3835;48.850;8.938;2023-07-20T03:07:17;14.90;99.90
7588;DHT22;3835;48.850;8.938;2023-07-20T03:09:44;14.90;99.90
7588;DHT22;3835;48.850;8.938;2023-07-20T03:12:11;14.90;99.90
7588;DHT22;3835;48.850;8.938;2023-07-20T03:14:39;14.90;99.90
7588;DHT22;3835;48.850;8.938;2023-07-20T03:17:06;14.90;99.90
7588;DHT22;3835;48.850;8.938;2023-07-20T03:19:33;14.90;99.90
7588;DHT22;3835;48.850;8.938;2023-07-20T03:22:00;14.90;99.90
7588;DHT22;3835;48.850;8.938;2023-07-20T03:24:27;14.90;99.90
7588;DHT22;3835;48.850;8.938;2023-07-20T03:26:54;14.80;99.90
7588;DHT22;3835;48.850;8.938;2023-07-20T03:29:20;14.80;99.90
7588;DHT22;3835;48.850;8.938;2023-07-20T03:31:48;14.70;99.90
7588;DHT22;3835;48.850;8.938;2023-07-20T03:34:16;14.70;99.90
7588;DHT22;3835;48.850;8.938;2023-07-20T03:36:42;14.60;99.90
7588;DHT22;3835;48.850;8.938;2023-07-20T03:39:09;14.60;99.90
7588;DHT22;3835;48.850;8.938;2023-07-20T03:41:36;14.50;99.90
7588;DHT22;3835;48.850;8.938;2023-07-20T03:44:03;14.50;99.90
7588;DHT22;3835;48.850;8.938;2023-07-20T03:46:30;14.40;99.90
7588;DHT22;3835;48.850;8.938;2023-07-20T03:49:00;14.40;99.90
7588;DHT22;3835;48.850;8.938;2023-07-20T03:51:27;14.40;99.90
7588;DHT22;3835;48.850;8.938;2023-07-20T03:53:54;14.40;99.90
7588;DHT22;3835;48.850;8.938;2023-07-20T03:56:21;14.40;99.90
7588;DHT22;3835;48.850;8.938;2023-07-20T03:58:48;14.40;99.90
7588;DHT22;3835;48.850;8.938;2023-07-20T04:01:15;14.50;99.90
7588;DHT22;3835;48.850;8.938;2023-07-20T04:03:42;14.60;99.90
7588;DHT22;3835;48.850;8.938;2023-07-20T04:06:10;14.60;99.90
7588;DHT22;3835;48.850;8.938;2023-07-20T04:08:37;14.70;99.90
7588;DHT22;3835;48.850;8.938;2023-07-20T04:11:04;14.70;99.90
7588;DHT22;3835;48.850;8.938;2023-07-20T04:13:31;14.80;99.90
7588;DHT22;3835;48.850;8.938;2023-07-20T04:15:58;14.90;99.90
7588;DHT22;3835;48.850;8.938;2023-07-20T04:18:25;15.00;99.90
7588;DHT22;3835;48.850;8.938;2023-07-20T04:20:52;15.10;99.90
7588;DHT22;3835;48.850;8.938;2023-07-20T04:23:20;15.20;99.90
7588;DHT22;3835;48.850;8.938;2023-07-20T04:25:47;15.30;99.90
7588;DHT22;3835;48.850;8.938;2023-07-20T04:28:14;15.30;99.90
7588;DHT22;3835;48.850;8.938;2023-07-20T04:30:40;15.30;99.90
7588;DHT22;3835;48.850;8.938;2023-07-20T04:33:07;15.50;99.90
7588;DHT22;3835;48.850;8.938;2023-07-20T04:35:48;15.60;99.90
7588;DHT22;3835;48.850;8.938;2023-07-20T04:38:15;15.70;99.90
7588;DHT22;3835;48.850;8.938;2023-07-20T04:40:44;15.80;99.90
7588;DHT22;3835;48.850;8.938;2023-07-20T04:43:11;15.90;99.90
7588;DHT22;3835;48.850;8.938;2023-07-20T04:45:38;16.00;99.90
7588;DHT22;3835;48.850;8.938;2023-07-20T04:48:06;16.10;99.90
7588;DHT22;3835;48.850;8.938;2023-07-20T04:50:35;16.20;99.90
7588;DHT22;3835;48.850;8.938;2023-07-20T04:53:02;16.40;99.90
7588;DHT22;3835;48.850;8.938;2023-07-20T04:55:29;16.50;99.90
7588;DHT22;3835;48.850;8.938;2023-07-20T04:57:57;16.60;99.90
7588;DHT22;3835;48.850;8.938;2023-07-20T05:00:24;16.80;99.90
7588;DHT22;3835;48.850;8.938;2023-07-20T05:02:50;17.00;99.90
7588;DHT22;3835;48.850;8.938;2023-07-20T05:05:17;17.30;99.90
7588;DHT22;3835;48.850;8.938;2023-07-20T05:07:44;17.50;99.90
7588;DHT22;3835;48.850;8.938;2023-07-20T05:10:11;17.70;99.90
7588;DHT22;3835;48.850;8.938;2023-07-20T05:12:38;17.80;99.90
7588;DHT22;3835;48.850;8.938;2023-07-20T05:15:07;17.70;99.90
7588;DHT22;3835;48.850;8.938;2023-07-20T05:17:34;17.80;99.90
7588;DHT22;3835;48.850;8.938;2023-07-20T05:20:00;17.80;99.90
7588;DHT22;3835;48.850;8.938;2023-07-20T05:22:27;17.90;99.90
7588;DHT22;3835;48.850;8.938;2023-07-20T05:24:54;17.90;99.90
7588;DHT22;3835;48.850;8.938;2023-07-20T05:27:21;18.10;99.90
7588;DHT22;3835;48.850;8.938;2023-07-20T05:29:48;18.10;99.90
7588;DHT22;3835;48.850;8.938;2023-07-20T05:32:16;18.20;99.90
7588;DHT22;3835;48.850;8.938;2023-07-20T05:34:42;19.00;99.90
7588;DHT22;3835;48.850;8.938;2023-07-20T05:37:09;20.60;99.90
7588;DHT22;3835;48.850;8.938;2023-07-20T05:39:36;22.50;99.90
7588;DHT22;3835;48.850;8.938;2023-07-20T05:42:03;23.40;99.90
7588;DHT22;3835;48.850;8.938;2023-07-20T05:44:30;22.70;99.90
7588;DHT22;3835;48.850;8.938;2023-07-20T05:46:56;23.70;99.90
7588;DHT22;3835;48.850;8.938;2023-07-20T05:49:25;22.70;99.90
7588;DHT22;3835;48.850;8.938;2023-07-20T05:51:51;23.40;99.90
7588;DHT22;3835;48.850;8.938;2023-07-20T05:54:18;23.10;99.90
7588;DHT22;3835;48.850;8.938;2023-07-20T05:56:46;22.70;99.90
7588;DHT22;3835;48.850;8.938;2023-07-20T05:59:13;22.70;99.90
7588;DHT22;3835;48.850;8.938;2023-07-20T06:01:39;21.90;99.90
7588;DHT22;3835;48.850;8.938;2023-07-20T06:04:07;21.50;99.90
7588;DHT22;3835;48.850;8.938;2023-07-20T06:06:35;21.10;99.90
7588;DHT22;3835;48.850;8.938;2023-07-20T06:09:02;20.80;99.90
7588;DHT22;3835;48.850;8.938;2023-07-20T06:11:29;20.60;99.90
7588;DHT22;3835;48.850;8.938;2023-07-20T06:13:57;20.30;99.90
7588;DHT22;3835;48.850;8.938;2023-07-20T06:16:23;20.20;99.90
7588;DHT22;3835;48.850;8.938;2023-07-20T06:18:50;20.30;99.90
7588;DHT22;3835;48.850;8.938;2023-07-20T06:21:17;20.40;99.90
7588;DHT22;3835;48.850;8.938;2023-07-20T06:23:45;20.40;99.90
7588;DHT22;3835;48.850;8.938;2023-07-20T06:26:12;20.60;99.90
7588;DHT22;3835;48.850;8.938;2023-07-20T06:28:38;20.80;99.90
7588;DHT22;3835;48.850;8.938;2023-07-20T06:31:05;20.70;99.90
7588;DHT22;3835;48.850;8.938;2023-07-20T06:33:32;20.10;99.90
7588;DHT22;3835;48.850;8.938;2023-07-20T06:36:00;20.20;99.90
7588;DHT22;3835;48.850;8.938;2023-07-20T06:38:26;20.30;99.90
7588;DHT22;3835;48.850;8.938;2023-07-20T06:40:55;20.30;99.90
7588;DHT22;3835;48.850;8.938;2023-07-20T06:43:21;20.50;99.90
7588;DHT22;3835;48.850;8.938;2023-07-20T06:45:51;20.60;99.90
7588;DHT22;3835;48.850;8.938;2023-07-20T06:48:19;20.60;99.90
7588;DHT22;3835;48.850;8.938;2023-07-20T06:50:45;20.90;99.90
7588;DHT22;3835;48.850;8.938;2023-07-20T06:53:12;21.10;99.90
7588;DHT22;3835;48.850;8.938;2023-07-20T06:55:41;21.20;99.90
7588;DHT22;3835;48.850;8.938;2023-07-20T06:58:10;21.20;99.90
7588;DHT22;3835;48.850;8.938;2023-07-20T07:00:37;21.40;99.90
7588;DHT22;3835;48.850;8.938;2023-07-20T07:03:04;21.50;99.90
7588;DHT22;3835;48.850;8.938;2023-07-20T07:05:31;21.40;99.90
7588;DHT22;3835;48.850;8.938;2023-07-20T07:07:57;21.60;99.90
7588;DHT22;3835;48.850;8.938;2023-07-20T07:10:24;21.70;99.90
7588;DHT22;3835;48.850;8.938;2023-07-20T07:12:51;21.90;99.90
7588;DHT22;3835;48.850;8.938;2023-07-20T07:15:19;22.20;99.90
7588;DHT22;3835;48.850;8.938;2023-07-20T07:17:46;22.20;99.90
7588;DHT22;3835;48.850;8.938;2023-07-20T07:20:13;22.20;99.90
7588;DHT22;3835;48.850;8.938;2023-07-20T07:22:40;22.00;99.90
7588;DHT22;3835;48.850;8.938;2023-07-20T07:25:10;21.60;99.90
7588;DHT22;3835;48.850;8.938;2023-07-20T07:27:36;21.40;99.90
7588;DHT22;3835;48.850;8.938;2023-07-20T07:30:04;21.10;99.90
7588;DHT22;3835;48.850;8.938;2023-07-20T07:32:33;20.60;99.90
7588;DHT22;3835;48.850;8.938;2023-07-20T07:35:00;20.70;99.90
7588;DHT22;3835;48.850;8.938;2023-07-20T07:37:27;21.00;99.90
7588;DHT22;3835;48.850;8.938;2023-07-20T07:39:54;21.50;99.90
7588;DHT22;3835;48.850;8.938;2023-07-20T07:42:22;21.70;99.90
7588;DHT22;3835;48.850;8.938;2023-07-20T07:44:49;21.80;99.90
7588;DHT22;3835;48.850;8.938;2023-07-20T07:47:15;21.90;99.90
7588;DHT22;3835;48.850;8.938;2023-07-20T07:49:44;22.00;99.90
7588;DHT22;3835;48.850;8.938;2023-07-20T07:52:11;22.30;99.90
7588;DHT22;3835;48.850;8.938;2023-07-20T07:54:39;22.00;99.90
7588;DHT22;3835;48.850;8.938;2023-07-20T07:57:06;22.00;99.90
7588;DHT22;3835;48.850;8.938;2023-07-20T07:59:33;22.10;99.90
7588;DHT22;3835;48.850;8.938;2023-07-20T08:02:02;21.60;99.90
7588;DHT22;3835;48.850;8.938;2023-07-20T08:04:29;21.40;99.90
7588;DHT22;3835;48.850;8.938;2023-07-20T08:06:59;21.90;99.90
7588;DHT22;3835;48.850;8.938;2023-07-20T08:09:26;21.60;99.90
7588;DHT22;3835;48.850;8.938;2023-07-20T08:11:53;21.60;99.70
7588;DHT22;3835;48.850;8.938;2023-07-20T08:14:20;21.90;99.90
7588;DHT22;3835;48.850;8.938;2023-07-20T08:16:47;22.10;99.90
7588;DHT22;3835;48.850;8.938;2023-07-20T08:19:14;22.00;99.60
7588;DHT22;3835;48.850;8.938;2023-07-20T08:21:41;22.30;99.50
7588;DHT22;3835;48.850;8.938;2023-07-20T08:24:09;22.00;98.90
7588;DHT22;3835;48.850;8.938;2023-07-20T08:26:36;21.80;99.90
7588;DHT22;3835;48.850;8.938;2023-07-20T08:29:03;22.00;99.10
7588;DHT22;3835;48.850;8.938;2023-07-20T08:31:31;21.90;98.20
7588;DHT22;3835;48.850;8.938;2023-07-20T08:33:57;21.20;98.70
7588;DHT22;3835;48.850;8.938;2023-07-20T08:36:24;20.80;99.90
7588;DHT22;3835;48.850;8.938;2023-07-20T08:38:52;20.50;99.90
7588;DHT22;3835;48.850;8.938;2023-07-20T08:41:21;20.20;99.90
7588;DHT22;3835;48.850;8.938;2023-07-20T08:43:48;19.90;99.90
7588;DHT22;3835;48.850;8.938;2023-07-20T08:46:16;19.80;99.90
7588;DHT22;3835;48.850;8.938;2023-07-20T08:48:44;19.80;99.90
7588;DHT22;3835;48.850;8.938;2023-07-20T08:51:11;20.20;99.90
7588;DHT22;3835;48.850;8.938;2023-07-20T08:53:39;21.10;99.90
7588;DHT22;3835;48.850;8.938;2023-07-20T08:56:07;21.50;99.80
7588;DHT22;3835;48.850;8.938;2023-07-20T08:58:37;21.80;98.90
7588;DHT22;3835;48.850;8.938;2023-07-20T09:01:05;22.30;99.30
7588;DHT22;3835;48.850;8.938;2023-07-20T09:03:33;22.50;99.90
7588;DHT22;3835;48.850;8.938;2023-07-20T09:06:00;22.80;99.60
7588;DHT22;3835;48.850;8.938;2023-07-20T09:08:26;22.70;95.10
7588;DHT22;3835;48.850;8.938;2023-07-20T09:10:53;22.90;95.40
7588;DHT22;3835;48.850;8.938;2023-07-20T09:13:20;22.70;95.40
7588;DHT22;3835;48.850;8.938;2023-07-20T09:15:53;22.70;93.30
7588;DHT22;3835;48.850;8.938;2023-07-20T09:18:28;22.40;91.60
7588;DHT22;3835;48.850;8.938;2023-07-20T09:20:58;22.00;92.20
7588;DHT22;3835;48.850;8.938;2023-07-20T09:23:30;22.00;93.70
7588;DHT22;3835;48.850;8.938;2023-07-20T09:25:57;22.00;94.20
7588;DHT22;3835;48.850;8.938;2023-07-20T09:28:24;21.90;93.80
7588;DHT22;3835;48.850;8.938;2023-07-20T09:30:54;22.20;94.40
7588;DHT22;3835;48.850;8.938;2023-07-20T09:33:22;22.40;94.10
7588;DHT22;3835;48.850;8.938;2023-07-20T09:35:49;22.40;95.30
7588;DHT22;3835;48.850;8.938;2023-07-20T09:38:15;22.80;94.70
7588;DHT22;3835;48.850;8.938;2023-07-20T09:40:42;23.10;93.30
7588;DHT22;3835;48.850;8.938;2023-07-20T09:43:10;22.80;92.40
7588;DHT22;3835;48.850;8.938;2023-07-20T09:45:40;22.90;92.40
7588;DHT22;3835;48.850;8.938;2023-07-20T09:48:10;22.70;92.90
7588;DHT22;3835;48.850;8.938;2023-07-20T09:50:39;22.70;92.20
7588;DHT22;3835;48.850;8.938;2023-07-20T09:53:09;22.80;91.70
7588;DHT22;3835;48.850;8.938;2023-07-20T09:55:36;22.60;92.50
7588;DHT22;3835;48.850;8.938;2023-07-20T09:58:04;22.40;91.60
7588;DHT22;3835;48.850;8.938;2023-07-20T10:00:33;22.00;91.90
7588;DHT22;3835;48.850;8.938;2023-07-20T10:03:03;22.10;92.20
7588;DHT22;3835;48.850;8.938;2023-07-20T10:05:33;22.20;91.80
7588;DHT22;3835;48.850;8.938;2023-07-20T10:08:02;22.10;89.10
7588;DHT22;3835;48.850;8.938;2023-07-20T10:10:31;21.90;88.90
7588;DHT22;3835;48.850;8.938;2023-07-20T10:13:00;21.90;91.10
7588;DHT22;3835;48.850;8.938;2023-07-20T10:15:30;22.40;89.70
7588;DHT22;3835;48.850;8.938;2023-07-20T10:18:03;22.10;90.10
7588;DHT22;3835;48.850;8.938;2023-07-20T10:20:34;22.20;87.90
7588;DHT22;3835;48.850;8.938;2023-07-20T10:23:03;22.70;84.00
7588;DHT22;3835;48.850;8.938;2023-07-20T10:25:30;22.70;82.90
7588;DHT22;3835;48.850;8.938;2023-07-20T10:27:58;22.60;84.30
7588;DHT22;3835;48.850;8.938;2023-07-20T10:30:26;23.00;90.20
7588;DHT22;3835;48.850;8.938;2023-07-20T10:32:53;23.40;85.70
7588;DHT22;3835;48.850;8.938;2023-07-20T10:35:20;23.40;85.10
7588;DHT22;3835;48.850;8.938;2023-07-20T10:37:53;22.90;87.80
7588;DHT22;3835;48.850;8.938;2023-07-20T10:40:30;22.10;90.20
7588;DHT22;3835;48.850;8.938;2023-07-20T10:43:05;21.60;90.50
7588;DHT22;3835;48.850;8.938;2023-07-20T10:45:39;21.90;89.70
7588;DHT22;3835;48.850;8.938;2023-07-20T10:48:09;22.30;88.30
7588;DHT22;3835;48.850;8.938;2023-07-20T10:50:40;22.20;86.90
7588;DHT22;3835;48.850;8.938;2023-07-20T10:53:13;22.10;85.30
7588;DHT22;3835;48.850;8.938;2023-07-20T10:55:41;22.20;85.60
7588;DHT22;3835;48.850;8.938;2023-07-20T10:58:10;22.20;85.70
7588;DHT22;3835;48.850;8.938;2023-07-20T11:00:37;22.50;89.10
7588;DHT22;3835;48.850;8.938;2023-07-20T11:03:04;22.70;84.70
7588;DHT22;3835;48.850;8.938;2023-07-20T11:05:33;22.60;88.00
7588;DHT22;3835;48.850;8.938;2023-07-20T11:07:59;22.50;86.50
7588;DHT22;3835;48.850;8.938;2023-07-20T11:10:27;22.60;87.00
7588;DHT22;3835;48.850;8.938;2023-07-20T11:13:19;22.50;86.10
7588;DHT22;3835;48.850;8.938;2023-07-20T11:15:48;22.70;83.60
7588;DHT22;3835;48.850;8.938;2023-07-20T11:18:15;22.60;83.50
7588;DHT22;3835;48.850;8.938;2023-07-20T11:20:42;22.70;82.40
7588;DHT22;3835;48.850;8.938;2023-07-20T11:23:09;22.80;81.90
7588;DHT22;3835;48.850;8.938;2023-07-20T11:25:39;22.90;81.80
7588;DHT22;3835;48.850;8.938;2023-07-20T11:28:09;22.80;81.80
7588;DHT22;3835;48.850;8.938;2023-07-20T11:30:37;22.90;80.70
7588;DHT22;3835;48.850;8.938;2023-07-20T11:33:04;23.30;79.80
7588;DHT22;3835;48.850;8.938;2023-07-20T11:35:35;23.70;81.30
7588;DHT22;3835;48.850;8.938;2023-07-20T11:38:03;24.00;84.40
7588;DHT22;3835;48.850;8.938;2023-07-20T11:40:30;23.90;82.80
7588;DHT22;3835;48.850;8.938;2023-07-20T11:42:58;23.70;83.90
7588;DHT22;3835;48.850;8.938;2023-07-20T11:45:25;23.70;82.30
7588;DHT22;3835;48.850;8.938;2023-07-20T11:47:52;23.70;85.40
7588;DHT22;3835;48.850;8.938;2023-07-20T11:50:20;23.80;82.40
7588;DHT22;3835;48.850;8.938;2023-07-20T11:52:46;23.70;78.30
7588;DHT22;3835;48.850;8.938;2023-07-20T11:55:13;23.70;77.80
7588;DHT22;3835;48.850;8.938;2023-07-20T11:57:40;23.70;78.40
7588;DHT22;3835;48.850;8.938;2023-07-20T12:00:09;23.80;77.20
7588;DHT22;3835;48.850;8.938;2023-07-20T12:02:37;23.70;76.80
7588;DHT22;3835;48.850;8.938;2023-07-20T12:05:06;23.20;74.30
7588;DHT22;3835;48.850;8.938;2023-07-20T12:07:35;23.30;76.40
7588;DHT22;3835;48.850;8.938;2023-07-20T12:10:05;23.20;77.00
7588;DHT22;3835;48.850;8.938;2023-07-20T12:12:32;23.10;74.70
7588;DHT22;3835;48.850;8.938;2023-07-20T12:15:14;23.20;76.90
7588;DHT22;3835;48.850;8.938;2023-07-20T12:17:42;23.60;74.60
7588;DHT22;3835;48.850;8.938;2023-07-20T12:20:10;23.70;75.10
7588;DHT22;3835;48.850;8.938;2023-07-20T12:22:40;23.90;72.10
7588;DHT22;3835;48.850;8.938;2023-07-20T12:25:08;23.50;73.20
7588;DHT22;3835;48.850;8.938;2023-07-20T12:27:36;23.80;71.80
7588;DHT22;3835;48.850;8.938;2023-07-20T12:30:04;23.90;71.80
7588;DHT22;3835;48.850;8.938;2023-07-20T12:32:33;23.30;73.90
7588;DHT22;3835;48.850;8.938;2023-07-20T12:34:59;23.60;76.10
7588;DHT22;3835;48.850;8.938;2023-07-20T12:37:26;24.20;76.00
7588;DHT22;3835;48.850;8.938;2023-07-20T12:39:53;24.50;77.20
7588;DHT22;3835;48.850;8.938;2023-07-20T12:42:20;24.50;74.60
7588;DHT22;3835;48.850;8.938;2023-07-20T12:44:48;24.20;74.00
7588;DHT22;3835;48.850;8.938;2023-07-20T12:47:15;24.10;73.60
7588;DHT22;3835;48.850;8.938;2023-07-20T12:49:44;23.70;73.80
7588;DHT22;3835;48.850;8.938;2023-07-20T12:52:12;23.80;73.40
7588;DHT22;3835;48.850;8.938;2023-07-20T12:54:39;23.90;75.20
7588;DHT22;3835;48.850;8.938;2023-07-20T12:57:06;24.20;72.40
7588;DHT22;3835;48.850;8.938;2023-07-20T12:59:33;23.80;73.80
7588;DHT22;3835;48.850;8.938;2023-07-20T13:02:00;23.80;75.20
7588;DHT22;3835;48.850;8.938;2023-07-20T13:04:27;23.80;75.80
7588;DHT22;3835;48.850;8.938;2023-07-20T13:06:55;23.70;72.10
7588;DHT22;3835;48.850;8.938;2023-07-20T13:09:24;23.50;75.80
7588;DHT22;3835;48.850;8.938;2023-07-20T13:11:50;23.80;74.00
7588;DHT22;3835;48.850;8.938;2023-07-20T13:14:18;23.80;73.50
7588;DHT22;3835;48.850;8.938;2023-07-20T13:16:44;23.90;69.90
7588;DHT22;3835;48.850;8.938;2023-07-20T13:19:11;24.10;72.60
7588;DHT22;3835;48.850;8.938;2023-07-20T13:21:38;24.10;70.70
7588;DHT22;3835;48.850;8.938;2023-07-20T13:24:06;24.30;70.60
7588;DHT22;3835;48.850;8.938;2023-07-20T13:26:33;24.50;69.00
7588;DHT22;3835;48.850;8.938;2023-07-20T13:29:00;24.60;69.00
7588;DHT22;3835;48.850;8.938;2023-07-20T13:31:26;24.30;67.20
7588;DHT22;3835;48.850;8.938;2023-07-20T13:33:53;24.20;67.60
7588;DHT22;3835;48.850;8.938;2023-07-20T13:36:20;24.20;71.10
7588;DHT22;3835;48.850;8.938;2023-07-20T13:38:47;24.30;68.10
7588;DHT22;3835;48.850;8.938;2023-07-20T13:41:16;24.20;65.70
7588;DHT22;3835;48.850;8.938;2023-07-20T13:43:42;24.10;65.80
7588;DHT22;3835;48.850;8.938;2023-07-20T13:46:09;24.20;66.90
7588;DHT22;3835;48.850;8.938;2023-07-20T13:48:36;24.50;64.50
7588;DHT22;3835;48.850;8.938;2023-07-20T13:51:03;24.30;64.50
7588;DHT22;3835;48.850;8.938;2023-07-20T13:53:30;24.30;67.40
7588;DHT22;3835;48.850;8.938;2023-07-20T13:55:57;24.60;66.40
7588;DHT22;3835;48.850;8.938;2023-07-20T13:58:25;24.50;65.30
7588;DHT22;3835;48.850;8.938;2023-07-20T14:00:52;24.20;67.20
7588;DHT22;3835;48.850;8.938;2023-07-20T14:03:20;24.50;69.70
7588;DHT22;3835;48.850;8.938;2023-07-20T14:05:47;24.80;68.00
7588;DHT22;3835;48.850;8.938;2023-07-20T14:08:14;24.80;66.90
7588;DHT22;3835;48.850;8.938;2023-07-20T14:10:41;24.40;65.90
7588;DHT22;3835;48.850;8.938;2023-07-20T14:13:08;24.50;66.40
7588;DHT22;3835;48.850;8.938;2023-07-20T14:15:36;24.30;66.00
7588;DHT22;3835;48.850;8.938;2023-07-20T14:18:03;24.30;68.40
7588;DHT22;3835;48.850;8.938;2023-07-20T14:20:29;24.40;68.50
7588;DHT22;3835;48.850;8.938;2023-07-20T14:22:56;24.50;66.10
7588;DHT22;3835;48.850;8.938;2023-07-20T14:25:23;24.50;66.50
7588;DHT22;3835;48.850;8.938;2023-07-20T14:27:50;24.50;64.60
7588;DHT22;3835;48.850;8.938;2023-07-20T14:30:16;24.40;64.30
7588;DHT22;3835;48.850;8.938;2023-07-20T14:32:44;24.20;63.60
7588;DHT22;3835;48.850;8.938;2023-07-20T14:35:11;24.10;65.50
7588;DHT22;3835;48.850;8.938;2023-07-20T14:37:38;24.40;66.30
7588;DHT22;3835;48.850;8.938;2023-07-20T14:40:06;24.40;64.60
7588;DHT22;3835;48.850;8.938;2023-07-20T14:42:33;24.60;65.80
7588;DHT22;3835;48.850;8.938;2023-07-20T14:45:00;24.50;64.80
7588;DHT22;3835;48.850;8.938;2023-07-20T14:47:28;24.50;67.10
7588;DHT22;3835;48.850;8.938;2023-07-20T14:49:58;24.30;64.50
7588;DHT22;3835;48.850;8.938;2023-07-20T14:52:25;24.30;63.60
7588;DHT22;3835;48.850;8.938;2023-07-20T14:54:52;24.20;65.30
7588;DHT22;3835;48.850;8.938;2023-07-20T14:57:19;23.80;65.60
7588;DHT22;3835;48.850;8.938;2023-07-20T14:59:48;24.10;67.40
7588;DHT22;3835;48.850;8.938;2023-07-20T15:02:14;24.40;66.50
7588;DHT22;3835;48.850;8.938;2023-07-20T15:04:46;24.70;67.00
7588;DHT22;3835;48.850;8.938;2023-07-20T15:07:14;24.50;65.10
7588;DHT22;3835;48.850;8.938;2023-07-20T15:09:41;24.60;67.40
7588;DHT22;3835;48.850;8.938;2023-07-20T15:12:08;24.70;65.90
7588;DHT22;3835;48.850;8.938;2023-07-20T15:14:35;24.80;66.80
7588;DHT22;3835;48.850;8.938;2023-07-20T15:17:02;25.00;68.80
7588;DHT22;3835;48.850;8.938;2023-07-20T15:19:29;25.20;69.30
7588;DHT22;3835;48.850;8.938;2023-07-20T15:21:56;25.00;66.20
7588;DHT22;3835;48.850;8.938;2023-07-20T15:24:24;24.70;64.30
7588;DHT22;3835;48.850;8.938;2023-07-20T15:26:51;24.50;66.50
7588;DHT22;3835;48.850;8.938;2023-07-20T15:29:18;24.80;67.50
7588;DHT22;3835;48.850;8.938;2023-07-20T15:31:46;24.60;65.10
7588;DHT22;3835;48.850;8.938;2023-07-20T15:34:13;24.10;64.60
7588;DHT22;3835;48.850;8.938;2023-07-20T15:36:41;23.60;64.40
7588;DHT22;3835;48.850;8.938;2023-07-20T15:39:08;23.70;65.10
7588;DHT22;3835;48.850;8.938;2023-07-20T15:41:37;23.90;64.60
7588;DHT22;3835;48.850;8.938;2023-07-20T15:44:03;24.10;64.80
7588;DHT22;3835;48.850;8.938;2023-07-20T15:46:51;24.10;65.80
7588;DHT22;3835;48.850;8.938;2023-07-20T15:49:18;24.10;65.30
7588;DHT22;3835;48.850;8.938;2023-07-20T15:51:45;23.90;67.20
7588;DHT22;3835;48.850;8.938;2023-07-20T15:54:13;23.80;65.60
7588;DHT22;3835;48.850;8.938;2023-07-20T15:56:43;23.80;65.80
7588;DHT22;3835;48.850;8.938;2023-07-20T15:59:11;23.80;66.00
7588;DHT22;3835;48.850;8.938;2023-07-20T16:01:37;23.90;64.60
7588;DHT22;3835;48.850;8.938;2023-07-20T16:04:06;24.00;65.50
7588;DHT22;3835;48.850;8.938;2023-07-20T16:06:33;23.80;63.90